SWA3449 KMSY-KMDW
Flight info
| Callsign | SWA3449 |
|---|---|
| Flight time | 1h 58m |
| Altitude | 31000 |
| Route | MCB MHZ SONEI NFOUR ENL PHEEB ENDEE8 |
| Aircraft | B738/M-SDFGHIRWX/LB1D1 |
Departure
| Time | 2026-05-05 09:38 |
|---|---|
| Airport | Louis Armstrong New Orleans International Airport (KMSY) |
Arrival
| Time | 2026-05-05 11:37 |
|---|---|
| Airport | Chicago Midway International Airport (KMDW) |
| Time | Latitude | Longitude | Altitude | Speed | Heading |
|---|---|---|---|---|---|
| 2026-05-05 09:22 | 29.99379 | -90.25615 | 12 ft | 0 kts | 287° |
| 2026-05-05 09:28 | 29.99374 | -90.25590 | 12 ft | 4 kts | 269° |
| 2026-05-05 09:28 | 29.99380 | -90.25563 | 12 ft | 4 kts | 225° |
| 2026-05-05 09:28 | 29.99399 | -90.25552 | 12 ft | 1 kts | 184° |
| 2026-05-05 09:31 | 29.99398 | -90.25552 | 12 ft | 1 kts | 184° |
| 2026-05-05 09:31 | 29.99356 | -90.25556 | 12 ft | 9 kts | 184° |
| 2026-05-05 09:32 | 29.99292 | -90.25561 | 12 ft | 9 kts | 183° |
| 2026-05-05 09:32 | 29.99231 | -90.25568 | 12 ft | 9 kts | 200° |
| 2026-05-05 09:32 | 29.99211 | -90.25643 | 12 ft | 15 kts | 272° |
| 2026-05-05 09:32 | 29.99226 | -90.25766 | 12 ft | 14 kts | 283° |
| 2026-05-05 09:33 | 29.99263 | -90.25839 | 12 ft | 10 kts | 329° |
| 2026-05-05 09:33 | 29.99329 | -90.25878 | 12 ft | 13 kts | 309° |
| 2026-05-05 09:33 | 29.99370 | -90.26006 | 12 ft | 20 kts | 285° |
| 2026-05-05 09:33 | 29.99410 | -90.26171 | 12 ft | 21 kts | 285° |
| 2026-05-05 09:34 | 29.99450 | -90.26331 | 12 ft | 20 kts | 286° |
| 2026-05-05 09:34 | 29.99488 | -90.26484 | 12 ft | 19 kts | 284° |
| 2026-05-05 09:34 | 29.99521 | -90.26631 | 12 ft | 18 kts | 285° |
| 2026-05-05 09:34 | 29.99554 | -90.26770 | 12 ft | 17 kts | 285° |
| 2026-05-05 09:35 | 29.99585 | -90.26900 | 12 ft | 17 kts | 285° |
| 2026-05-05 09:35 | 29.99659 | -90.27211 | 12 ft | 22 kts | 285° |
| 2026-05-05 09:35 | 29.99698 | -90.27379 | 12 ft | 21 kts | 285° |
| 2026-05-05 09:36 | 29.99736 | -90.27539 | 12 ft | 20 kts | 285° |
| 2026-05-05 09:36 | 29.99772 | -90.27693 | 12 ft | 19 kts | 285° |
| 2026-05-05 09:36 | 29.99806 | -90.27839 | 12 ft | 18 kts | 287° |
| 2026-05-05 09:36 | 29.99842 | -90.27975 | 12 ft | 16 kts | 287° |
| 2026-05-05 09:37 | 29.99856 | -90.28080 | 12 ft | 13 kts | 242° |
| 2026-05-05 09:37 | 29.99781 | -90.28124 | 12 ft | 12 kts | 195° |
| 2026-05-05 09:37 | 29.99702 | -90.28149 | 12 ft | 12 kts | 194° |
| 2026-05-05 09:37 | 29.99653 | -90.28130 | 12 ft | 12 kts | 109° |
| 2026-05-05 09:38 | 29.99589 | -90.27873 | 12 ft | 64 kts | 105° |
| 2026-05-05 09:38 | 29.99414 | -90.27144 | 12 ft | 123 kts | 105° |
| 2026-05-05 09:38 | 29.99140 | -90.25997 | 95 ft | 166 kts | 106° |
| 2026-05-05 09:38 | 29.98838 | -90.24677 | 752 ft | 172 kts | 105° |
| 2026-05-05 09:39 | 29.98535 | -90.23325 | 1481 ft | 179 kts | 105° |
| 2026-05-05 09:39 | 29.98203 | -90.21840 | 1911 ft | 204 kts | 106° |
| 2026-05-05 09:39 | 29.97824 | -90.20141 | 2205 ft | 233 kts | 107° |
| 2026-05-05 09:39 | 29.97400 | -90.18256 | 2783 ft | 251 kts | 107° |
| 2026-05-05 09:40 | 29.97174 | -90.16243 | 3512 ft | 266 kts | 88° |
| 2026-05-05 09:40 | 29.97710 | -90.14164 | 4316 ft | 278 kts | 63° |
| 2026-05-05 09:40 | 29.98975 | -90.12455 | 5174 ft | 284 kts | 38° |
| 2026-05-05 09:40 | 30.00739 | -90.11445 | 6066 ft | 285 kts | 14° |
| 2026-05-05 09:41 | 30.02694 | -90.11136 | 6952 ft | 285 kts | 0° |
| 2026-05-05 09:41 | 30.04677 | -90.11273 | 7790 ft | 287 kts | 352° |
| 2026-05-05 09:41 | 30.06675 | -90.11490 | 8602 ft | 290 kts | 352° |
| 2026-05-05 09:41 | 30.08695 | -90.11723 | 9411 ft | 293 kts | 351° |
| 2026-05-05 09:42 | 30.10692 | -90.11954 | 10295 ft | 292 kts | 351° |
| 2026-05-05 09:42 | 30.12721 | -90.12188 | 11102 ft | 295 kts | 351° |
| 2026-05-05 09:42 | 30.14802 | -90.12428 | 11651 ft | 308 kts | 351° |
| 2026-05-05 09:42 | 30.16990 | -90.12680 | 12018 ft | 325 kts | 351° |
| 2026-05-05 09:43 | 30.19309 | -90.12947 | 12305 ft | 344 kts | 351° |
| 2026-05-05 09:43 | 30.21749 | -90.13228 | 12545 ft | 362 kts | 351° |
| 2026-05-05 09:43 | 30.24299 | -90.13521 | 12950 ft | 372 kts | 351° |
| 2026-05-05 09:43 | 30.26893 | -90.13819 | 13553 ft | 377 kts | 351° |
| 2026-05-05 09:44 | 30.29476 | -90.14116 | 14166 ft | 380 kts | 350° |
| 2026-05-05 09:44 | 30.32120 | -90.14421 | 14798 ft | 383 kts | 350° |
| 2026-05-05 09:44 | 30.34780 | -90.14727 | 15400 ft | 386 kts | 350° |
| 2026-05-05 09:44 | 30.37462 | -90.15033 | 16008 ft | 388 kts | 350° |
| 2026-05-05 09:45 | 30.40164 | -90.15342 | 16552 ft | 392 kts | 349° |
| 2026-05-05 09:45 | 30.42889 | -90.15655 | 17123 ft | 395 kts | 349° |
| 2026-05-05 09:45 | 30.45636 | -90.15971 | 17569 ft | 401 kts | 349° |
| 2026-05-05 09:45 | 30.48446 | -90.16294 | 17813 ft | 410 kts | 349° |
| 2026-05-05 09:46 | 30.51307 | -90.16623 | 18232 ft | 415 kts | 349° |
| 2026-05-05 09:46 | 30.54145 | -90.16951 | 18685 ft | 417 kts | 349° |
| 2026-05-05 09:46 | 30.57046 | -90.17285 | 19140 ft | 420 kts | 349° |
| 2026-05-05 09:46 | 30.59953 | -90.17621 | 19603 ft | 421 kts | 349° |
| 2026-05-05 09:47 | 30.62880 | -90.17959 | 20013 ft | 424 kts | 349° |
| 2026-05-05 09:47 | 30.65829 | -90.18300 | 20403 ft | 427 kts | 348° |
| 2026-05-05 09:47 | 30.68792 | -90.18642 | 20833 ft | 428 kts | 348° |
| 2026-05-05 09:47 | 30.71763 | -90.18986 | 21218 ft | 430 kts | 348° |
| 2026-05-05 09:48 | 30.74750 | -90.19332 | 21584 ft | 433 kts | 348° |
| 2026-05-05 09:48 | 30.77751 | -90.19680 | 21939 ft | 435 kts | 348° |
| 2026-05-05 09:48 | 30.80765 | -90.20029 | 22298 ft | 436 kts | 348° |
| 2026-05-05 09:48 | 30.83751 | -90.20375 | 22624 ft | 438 kts | 348° |
| 2026-05-05 09:49 | 30.86794 | -90.20729 | 22945 ft | 440 kts | 348° |
| 2026-05-05 09:49 | 30.89842 | -90.21083 | 23280 ft | 441 kts | 348° |
| 2026-05-05 09:49 | 30.92900 | -90.21438 | 23606 ft | 442 kts | 348° |
| 2026-05-05 09:49 | 30.95964 | -90.21795 | 23884 ft | 444 kts | 348° |
| 2026-05-05 09:50 | 30.99048 | -90.22153 | 24165 ft | 446 kts | 348° |
| 2026-05-05 09:50 | 31.02132 | -90.22510 | 24518 ft | 445 kts | 347° |
| 2026-05-05 09:50 | 31.05216 | -90.22869 | 24828 ft | 445 kts | 347° |
| 2026-05-05 09:50 | 31.08301 | -90.23229 | 25089 ft | 447 kts | 347° |
| 2026-05-05 09:51 | 31.11356 | -90.23586 | 25367 ft | 447 kts | 347° |
| 2026-05-05 09:51 | 31.14457 | -90.23948 | 25630 ft | 448 kts | 347° |
| 2026-05-05 09:51 | 31.17564 | -90.24312 | 25870 ft | 449 kts | 347° |
| 2026-05-05 09:51 | 31.20675 | -90.24676 | 26145 ft | 449 kts | 347° |
| 2026-05-05 09:52 | 31.23781 | -90.25040 | 26492 ft | 448 kts | 347° |
| 2026-05-05 09:52 | 31.26867 | -90.25399 | 26931 ft | 444 kts | 347° |
| 2026-05-05 09:52 | 31.29963 | -90.25569 | 27337 ft | 447 kts | 352° |
| 2026-05-05 09:52 | 31.33085 | -90.25407 | 27688 ft | 451 kts | 356° |
| 2026-05-05 09:53 | 31.36203 | -90.25047 | 28115 ft | 450 kts | 358° |
| 2026-05-05 09:53 | 31.39263 | -90.24617 | 28513 ft | 448 kts | 358° |
| 2026-05-05 09:53 | 31.42348 | -90.24180 | 28900 ft | 446 kts | 358° |
| 2026-05-05 09:53 | 31.45421 | -90.23748 | 29300 ft | 443 kts | 358° |
| 2026-05-05 09:54 | 31.48473 | -90.23320 | 29690 ft | 441 kts | 358° |
| 2026-05-05 09:54 | 31.51512 | -90.22894 | 30133 ft | 438 kts | 357° |
| 2026-05-05 09:54 | 31.54530 | -90.22472 | 30524 ft | 436 kts | 357° |
| 2026-05-05 09:54 | 31.57538 | -90.22052 | 30870 ft | 435 kts | 357° |
| 2026-05-05 09:55 | 31.63550 | -90.21211 | 30982 ft | 434 kts | 357° |
| 2026-05-05 09:55 | 31.69485 | -90.20387 | 30990 ft | 431 kts | 357° |
| 2026-05-05 09:56 | 31.75434 | -90.19557 | 30990 ft | 431 kts | 357° |
| 2026-05-05 09:56 | 31.81385 | -90.18725 | 30988 ft | 431 kts | 357° |
| 2026-05-05 09:57 | 31.87332 | -90.17892 | 30985 ft | 430 kts | 356° |
| 2026-05-05 09:57 | 31.93235 | -90.17063 | 30982 ft | 430 kts | 357° |
| 2026-05-05 09:58 | 31.99179 | -90.16228 | 30979 ft | 430 kts | 357° |
| 2026-05-05 09:58 | 32.05126 | -90.15391 | 30976 ft | 430 kts | 357° |
| 2026-05-05 09:59 | 32.11068 | -90.14554 | 30974 ft | 430 kts | 356° |
| 2026-05-05 09:59 | 32.16970 | -90.13725 | 30972 ft | 430 kts | 357° |
| 2026-05-05 10:00 | 32.22915 | -90.12885 | 30971 ft | 430 kts | 357° |
| 2026-05-05 10:00 | 32.28859 | -90.12043 | 30970 ft | 430 kts | 357° |
| 2026-05-05 10:01 | 32.34799 | -90.11200 | 30970 ft | 430 kts | 357° |
| 2026-05-05 10:01 | 32.39741 | -90.10498 | 30970 ft | 430 kts | 357° |
| 2026-05-05 10:02 | 32.46647 | -90.09416 | 30970 ft | 433 kts | 359° |
| 2026-05-05 10:02 | 32.52583 | -90.08133 | 30969 ft | 434 kts | 0° |
| 2026-05-05 10:03 | 32.57522 | -90.07066 | 30969 ft | 434 kts | 360° |
| 2026-05-05 10:03 | 32.63456 | -90.05805 | 30968 ft | 433 kts | 360° |
| 2026-05-05 10:04 | 32.69384 | -90.04555 | 30966 ft | 433 kts | 359° |
| 2026-05-05 10:04 | 32.75314 | -90.03306 | 30964 ft | 433 kts | 359° |
| 2026-05-05 10:05 | 32.81200 | -90.02075 | 30961 ft | 432 kts | 359° |
| 2026-05-05 10:05 | 32.87122 | -90.00835 | 30958 ft | 432 kts | 359° |
| 2026-05-05 10:06 | 32.93040 | -89.99592 | 30955 ft | 432 kts | 359° |
| 2026-05-05 10:06 | 32.98933 | -89.98355 | 30952 ft | 429 kts | 359° |
| 2026-05-05 10:07 | 33.04809 | -89.97115 | 30948 ft | 428 kts | 359° |
| 2026-05-05 10:07 | 33.10642 | -89.95884 | 30945 ft | 428 kts | 359° |
| 2026-05-05 10:08 | 33.16505 | -89.94645 | 30944 ft | 427 kts | 359° |
| 2026-05-05 10:08 | 33.22364 | -89.93405 | 30941 ft | 428 kts | 359° |
| 2026-05-05 10:09 | 33.28229 | -89.92159 | 30940 ft | 427 kts | 359° |
| 2026-05-05 10:09 | 33.34039 | -89.90925 | 30939 ft | 427 kts | 359° |
| 2026-05-05 10:10 | 33.39890 | -89.89676 | 30936 ft | 427 kts | 359° |
| 2026-05-05 10:10 | 33.45726 | -89.88443 | 30938 ft | 426 kts | 359° |
| 2026-05-05 10:11 | 33.51566 | -89.87196 | 30936 ft | 426 kts | 359° |
| 2026-05-05 10:11 | 33.57400 | -89.85950 | 30935 ft | 426 kts | 359° |
| 2026-05-05 10:12 | 33.63181 | -89.84719 | 30935 ft | 424 kts | 359° |
| 2026-05-05 10:12 | 33.69002 | -89.83469 | 30932 ft | 425 kts | 359° |
| 2026-05-05 10:13 | 33.74830 | -89.82219 | 30930 ft | 425 kts | 359° |
| 2026-05-05 10:13 | 33.80654 | -89.80971 | 30927 ft | 425 kts | 358° |
| 2026-05-05 10:14 | 33.86431 | -89.79728 | 30925 ft | 425 kts | 359° |
| 2026-05-05 10:14 | 33.92249 | -89.78473 | 30920 ft | 425 kts | 358° |
| 2026-05-05 10:15 | 33.98061 | -89.77228 | 30918 ft | 425 kts | 359° |
| 2026-05-05 10:15 | 34.03885 | -89.75969 | 30914 ft | 425 kts | 359° |
| 2026-05-05 10:16 | 34.09667 | -89.74718 | 30911 ft | 425 kts | 359° |
| 2026-05-05 10:16 | 34.15493 | -89.73455 | 30907 ft | 426 kts | 359° |
| 2026-05-05 10:17 | 34.21334 | -89.72197 | 30906 ft | 426 kts | 359° |
| 2026-05-05 10:17 | 34.27177 | -89.70929 | 30906 ft | 427 kts | 359° |
| 2026-05-05 10:18 | 34.33029 | -89.69655 | 30906 ft | 427 kts | 359° |
| 2026-05-05 10:18 | 34.38842 | -89.68387 | 30908 ft | 428 kts | 359° |
| 2026-05-05 10:19 | 34.44712 | -89.67107 | 30910 ft | 429 kts | 359° |
| 2026-05-05 10:19 | 34.50574 | -89.65967 | 30907 ft | 425 kts | 356° |
| 2026-05-05 10:20 | 34.56445 | -89.65270 | 30903 ft | 424 kts | 355° |
| 2026-05-05 10:20 | 34.62290 | -89.64571 | 30897 ft | 426 kts | 355° |
| 2026-05-05 10:21 | 34.68199 | -89.63829 | 30891 ft | 427 kts | 355° |
| 2026-05-05 10:21 | 34.74107 | -89.63074 | 30886 ft | 427 kts | 355° |
| 2026-05-05 10:22 | 34.80029 | -89.62313 | 30877 ft | 430 kts | 356° |
| 2026-05-05 10:22 | 34.85947 | -89.61552 | 30879 ft | 431 kts | 356° |
| 2026-05-05 10:23 | 34.91913 | -89.60786 | 30875 ft | 432 kts | 356° |
| 2026-05-05 10:23 | 34.97908 | -89.60011 | 30878 ft | 433 kts | 356° |
| 2026-05-05 10:24 | 35.03907 | -89.59232 | 30873 ft | 434 kts | 356° |
| 2026-05-05 10:24 | 35.09870 | -89.58461 | 30875 ft | 435 kts | 356° |
| 2026-05-05 10:25 | 35.15904 | -89.57673 | 30875 ft | 437 kts | 356° |
| 2026-05-05 10:25 | 35.21958 | -89.56884 | 30875 ft | 438 kts | 356° |
| 2026-05-05 10:26 | 35.27986 | -89.56098 | 30875 ft | 439 kts | 356° |
| 2026-05-05 10:26 | 35.34070 | -89.55306 | 30880 ft | 440 kts | 356° |
| 2026-05-05 10:27 | 35.40177 | -89.54509 | 30877 ft | 442 kts | 356° |
| 2026-05-05 10:27 | 35.46294 | -89.53704 | 30878 ft | 442 kts | 356° |
| 2026-05-05 10:28 | 35.52402 | -89.52905 | 30879 ft | 441 kts | 356° |
| 2026-05-05 10:28 | 35.58493 | -89.52102 | 30880 ft | 444 kts | 356° |
| 2026-05-05 10:29 | 35.64625 | -89.51295 | 30878 ft | 443 kts | 356° |
| 2026-05-05 10:29 | 35.70768 | -89.50522 | 30875 ft | 444 kts | 356° |
| 2026-05-05 10:30 | 35.76918 | -89.49769 | 30871 ft | 444 kts | 356° |
| 2026-05-05 10:30 | 35.83027 | -89.49014 | 30866 ft | 445 kts | 356° |
| 2026-05-05 10:31 | 35.89189 | -89.48248 | 30865 ft | 445 kts | 356° |
| 2026-05-05 10:31 | 35.95362 | -89.47481 | 30860 ft | 445 kts | 356° |
| 2026-05-05 10:32 | 36.01522 | -89.46721 | 30849 ft | 445 kts | 356° |
| 2026-05-05 10:32 | 36.07679 | -89.45960 | 30849 ft | 449 kts | 356° |
| 2026-05-05 10:33 | 36.13892 | -89.45190 | 30848 ft | 448 kts | 356° |
| 2026-05-05 10:33 | 36.20111 | -89.44414 | 30848 ft | 449 kts | 356° |
| 2026-05-05 10:34 | 36.26321 | -89.43638 | 30849 ft | 449 kts | 357° |
| 2026-05-05 10:34 | 36.32531 | -89.42863 | 30847 ft | 448 kts | 357° |
| 2026-05-05 10:35 | 36.38703 | -89.42089 | 30845 ft | 449 kts | 357° |
| 2026-05-05 10:35 | 36.44922 | -89.41308 | 30835 ft | 449 kts | 357° |
| 2026-05-05 10:36 | 36.51142 | -89.40529 | 30834 ft | 449 kts | 357° |
| 2026-05-05 10:36 | 36.57361 | -89.39744 | 30830 ft | 449 kts | 357° |
| 2026-05-05 10:37 | 36.63542 | -89.38964 | 30826 ft | 450 kts | 357° |
| 2026-05-05 10:37 | 36.69771 | -89.38178 | 30824 ft | 451 kts | 358° |
| 2026-05-05 10:38 | 36.76025 | -89.37387 | 30821 ft | 451 kts | 358° |
| 2026-05-05 10:38 | 36.82273 | -89.36597 | 30819 ft | 451 kts | 358° |
| 2026-05-05 10:39 | 36.88488 | -89.35808 | 30820 ft | 453 kts | 358° |
| 2026-05-05 10:39 | 36.94764 | -89.35010 | 30819 ft | 454 kts | 358° |
| 2026-05-05 10:40 | 37.01040 | -89.34210 | 30823 ft | 453 kts | 358° |
| 2026-05-05 10:40 | 37.07317 | -89.33409 | 30826 ft | 454 kts | 358° |
| 2026-05-05 10:41 | 37.13599 | -89.32606 | 30827 ft | 454 kts | 358° |
| 2026-05-05 10:41 | 37.19841 | -89.31807 | 30824 ft | 454 kts | 358° |
| 2026-05-05 10:42 | 37.29292 | -89.30595 | 30817 ft | 455 kts | 358° |
| 2026-05-05 10:43 | 37.35591 | -89.29786 | 30815 ft | 455 kts | 358° |
| 2026-05-05 10:43 | 37.41893 | -89.28974 | 30812 ft | 456 kts | 358° |
| 2026-05-05 10:44 | 37.48170 | -89.28165 | 30809 ft | 456 kts | 359° |
| 2026-05-05 10:44 | 37.54486 | -89.27349 | 30806 ft | 456 kts | 359° |
| 2026-05-05 10:45 | 37.60806 | -89.26531 | 30803 ft | 457 kts | 359° |
| 2026-05-05 10:45 | 37.67138 | -89.25711 | 30801 ft | 457 kts | 359° |
| 2026-05-05 10:46 | 37.73423 | -89.24895 | 30799 ft | 457 kts | 359° |
| 2026-05-05 10:46 | 37.79756 | -89.24071 | 30800 ft | 457 kts | 359° |
| 2026-05-05 10:47 | 37.86092 | -89.23246 | 30801 ft | 457 kts | 359° |
| 2026-05-05 10:47 | 37.92422 | -89.22420 | 30803 ft | 457 kts | 359° |
| 2026-05-05 10:48 | 37.98709 | -89.21598 | 30804 ft | 457 kts | 359° |
| 2026-05-05 10:48 | 38.05055 | -89.20767 | 30806 ft | 461 kts | 359° |
| 2026-05-05 10:49 | 38.11457 | -89.19930 | 30807 ft | 463 kts | 359° |
| 2026-05-05 10:49 | 38.17866 | -89.19090 | 30809 ft | 462 kts | 359° |
| 2026-05-05 10:50 | 38.24274 | -89.18245 | 30798 ft | 464 kts | 359° |
| 2026-05-05 10:50 | 38.30644 | -89.17403 | 30793 ft | 463 kts | 359° |
| 2026-05-05 10:51 | 38.37059 | -89.16554 | 30798 ft | 463 kts | 359° |
| 2026-05-05 10:51 | 38.43461 | -89.15991 | 30795 ft | 458 kts | 353° |
| 2026-05-05 10:52 | 38.49805 | -89.16305 | 30791 ft | 456 kts | 350° |
| 2026-05-05 10:52 | 38.56140 | -89.16729 | 30790 ft | 456 kts | 350° |
| 2026-05-05 10:53 | 38.62432 | -89.17128 | 30791 ft | 457 kts | 350° |
| 2026-05-05 10:53 | 38.68786 | -89.17522 | 30795 ft | 457 kts | 350° |
| 2026-05-05 10:54 | 38.75133 | -89.17912 | 30799 ft | 457 kts | 350° |
| 2026-05-05 10:54 | 38.81490 | -89.18298 | 30803 ft | 458 kts | 350° |
| 2026-05-05 10:55 | 38.87811 | -89.18684 | 30808 ft | 458 kts | 350° |
| 2026-05-05 10:55 | 38.94177 | -89.19073 | 30814 ft | 458 kts | 350° |
| 2026-05-05 10:56 | 39.00553 | -89.19464 | 30820 ft | 459 kts | 350° |
| 2026-05-05 10:56 | 39.06932 | -89.19856 | 30826 ft | 459 kts | 350° |
| 2026-05-05 10:57 | 39.13281 | -89.20247 | 30823 ft | 461 kts | 350° |
| 2026-05-05 10:57 | 39.19683 | -89.20642 | 30836 ft | 460 kts | 350° |
| 2026-05-05 10:58 | 39.26088 | -89.21038 | 30847 ft | 460 kts | 350° |
| 2026-05-05 10:58 | 39.32495 | -89.21435 | 30854 ft | 461 kts | 349° |
| 2026-05-05 10:59 | 39.38873 | -89.21830 | 30860 ft | 462 kts | 349° |
| 2026-05-05 10:59 | 39.45297 | -89.22229 | 30864 ft | 462 kts | 349° |
| 2026-05-05 11:00 | 39.51722 | -89.22629 | 30866 ft | 463 kts | 349° |
| 2026-05-05 11:00 | 39.58162 | -89.23031 | 30865 ft | 463 kts | 349° |
| 2026-05-05 11:01 | 39.64597 | -89.23433 | 30860 ft | 463 kts | 349° |
| 2026-05-05 11:01 | 39.70991 | -89.23833 | 30853 ft | 463 kts | 349° |
| 2026-05-05 11:02 | 39.77427 | -89.24237 | 30844 ft | 463 kts | 349° |
| 2026-05-05 11:02 | 39.83874 | -89.24642 | 30839 ft | 464 kts | 349° |
| 2026-05-05 11:03 | 39.90324 | -89.25048 | 30854 ft | 464 kts | 349° |
| 2026-05-05 11:03 | 39.96773 | -89.25453 | 30856 ft | 464 kts | 349° |
| 2026-05-05 11:04 | 40.03191 | -89.25856 | 30854 ft | 465 kts | 349° |
| 2026-05-05 11:04 | 40.06429 | -89.26062 | 30562 ft | 468 kts | 349° |
| 2026-05-05 11:04 | 40.09675 | -89.26270 | 29850 ft | 466 kts | 349° |
| 2026-05-05 11:04 | 40.12913 | -89.26476 | 29099 ft | 465 kts | 349° |
| 2026-05-05 11:05 | 40.16131 | -89.26680 | 28506 ft | 461 kts | 349° |
| 2026-05-05 11:05 | 40.19321 | -89.26883 | 27923 ft | 457 kts | 349° |
| 2026-05-05 11:05 | 40.22487 | -89.27013 | 27344 ft | 457 kts | 354° |
| 2026-05-05 11:05 | 40.25654 | -89.26421 | 26774 ft | 465 kts | 7° |
| 2026-05-05 11:06 | 40.28698 | -89.24916 | 26203 ft | 472 kts | 20° |
| 2026-05-05 11:06 | 40.31478 | -89.22719 | 25645 ft | 475 kts | 30° |
| 2026-05-05 11:06 | 40.34073 | -89.20031 | 25081 ft | 474 kts | 34° |
| 2026-05-05 11:06 | 40.36664 | -89.17404 | 24518 ft | 468 kts | 31° |
| 2026-05-05 11:07 | 40.39303 | -89.14984 | 24155 ft | 456 kts | 27° |
| 2026-05-05 11:07 | 40.41997 | -89.12871 | 23785 ft | 449 kts | 22° |
| 2026-05-05 11:07 | 40.44775 | -89.11045 | 23108 ft | 445 kts | 18° |
| 2026-05-05 11:07 | 40.47604 | -89.09443 | 22522 ft | 441 kts | 17° |
| 2026-05-05 11:08 | 40.50348 | -89.07767 | 22026 ft | 440 kts | 19° |
| 2026-05-05 11:08 | 40.53071 | -89.05966 | 21492 ft | 437 kts | 20° |
| 2026-05-05 11:08 | 40.55766 | -89.04169 | 20960 ft | 433 kts | 20° |
| 2026-05-05 11:08 | 40.58453 | -89.02408 | 20421 ft | 429 kts | 19° |
| 2026-05-05 11:09 | 40.61122 | -89.00692 | 19899 ft | 425 kts | 19° |
| 2026-05-05 11:09 | 40.63767 | -88.98985 | 19397 ft | 421 kts | 19° |
| 2026-05-05 11:09 | 40.66386 | -88.97289 | 18864 ft | 418 kts | 19° |
| 2026-05-05 11:09 | 40.68985 | -88.95603 | 18350 ft | 415 kts | 19° |
| 2026-05-05 11:10 | 40.71564 | -88.93927 | 17822 ft | 412 kts | 19° |
| 2026-05-05 11:10 | 40.74127 | -88.92261 | 17310 ft | 409 kts | 20° |
| 2026-05-05 11:10 | 40.76634 | -88.90630 | 16796 ft | 406 kts | 20° |
| 2026-05-05 11:10 | 40.79158 | -88.88987 | 16268 ft | 403 kts | 20° |
| 2026-05-05 11:11 | 40.81666 | -88.87354 | 15768 ft | 400 kts | 20° |
| 2026-05-05 11:11 | 40.84158 | -88.85732 | 15265 ft | 397 kts | 20° |
| 2026-05-05 11:11 | 40.86625 | -88.84123 | 14772 ft | 395 kts | 20° |
| 2026-05-05 11:11 | 40.89055 | -88.82543 | 14193 ft | 380 kts | 19° |
| 2026-05-05 11:12 | 40.91385 | -88.81047 | 13650 ft | 363 kts | 19° |
| 2026-05-05 11:12 | 40.93583 | -88.79624 | 13345 ft | 342 kts | 19° |
| 2026-05-05 11:12 | 40.95672 | -88.78266 | 13139 ft | 335 kts | 19° |
| 2026-05-05 11:12 | 40.97730 | -88.76925 | 12993 ft | 327 kts | 19° |
| 2026-05-05 11:13 | 40.99761 | -88.75598 | 12684 ft | 325 kts | 19° |
| 2026-05-05 11:13 | 41.01784 | -88.74275 | 12372 ft | 324 kts | 19° |
| 2026-05-05 11:13 | 41.03800 | -88.72954 | 12057 ft | 322 kts | 19° |
| 2026-05-05 11:13 | 41.05801 | -88.71643 | 11757 ft | 321 kts | 19° |
| 2026-05-05 11:14 | 41.07794 | -88.70336 | 11481 ft | 316 kts | 20° |
| 2026-05-05 11:14 | 41.09733 | -88.69065 | 10932 ft | 309 kts | 20° |
| 2026-05-05 11:14 | 41.11632 | -88.67820 | 10268 ft | 307 kts | 20° |
| 2026-05-05 11:14 | 41.13536 | -88.66571 | 9665 ft | 303 kts | 21° |
| 2026-05-05 11:15 | 41.15402 | -88.65347 | 9084 ft | 297 kts | 21° |
| 2026-05-05 11:15 | 41.17247 | -88.64136 | 8523 ft | 297 kts | 22° |
| 2026-05-05 11:15 | 41.19093 | -88.62918 | 8276 ft | 293 kts | 22° |
| 2026-05-05 11:15 | 41.20911 | -88.61739 | 8057 ft | 289 kts | 22° |
| 2026-05-05 11:16 | 41.22710 | -88.60564 | 7765 ft | 287 kts | 22° |
| 2026-05-05 11:16 | 41.24495 | -88.59395 | 7486 ft | 285 kts | 22° |
| 2026-05-05 11:16 | 41.26262 | -88.58233 | 7209 ft | 283 kts | 22° |
| 2026-05-05 11:16 | 41.28017 | -88.57080 | 6932 ft | 281 kts | 23° |
| 2026-05-05 11:17 | 41.29737 | -88.55948 | 6647 ft | 279 kts | 23° |
| 2026-05-05 11:17 | 41.31466 | -88.54810 | 6369 ft | 276 kts | 23° |
| 2026-05-05 11:17 | 41.33179 | -88.53682 | 6127 ft | 273 kts | 23° |
| 2026-05-05 11:17 | 41.34872 | -88.52569 | 6058 ft | 271 kts | 23° |
| 2026-05-05 11:18 | 41.36549 | -88.51399 | 6044 ft | 275 kts | 28° |
| 2026-05-05 11:18 | 41.38065 | -88.49820 | 6042 ft | 279 kts | 40° |
| 2026-05-05 11:18 | 41.39390 | -88.47921 | 6038 ft | 281 kts | 47° |
| 2026-05-05 11:18 | 41.40608 | -88.45882 | 6032 ft | 282 kts | 49° |
| 2026-05-05 11:19 | 41.41786 | -88.43838 | 6025 ft | 282 kts | 49° |
| 2026-05-05 11:19 | 41.42999 | -88.41784 | 6022 ft | 282 kts | 48° |
| 2026-05-05 11:19 | 41.44218 | -88.39742 | 6021 ft | 282 kts | 48° |
| 2026-05-05 11:19 | 41.45448 | -88.37699 | 6020 ft | 282 kts | 48° |
| 2026-05-05 11:20 | 41.46674 | -88.35669 | 6019 ft | 282 kts | 48° |
| 2026-05-05 11:20 | 41.47908 | -88.33629 | 6018 ft | 282 kts | 47° |
| 2026-05-05 11:20 | 41.49147 | -88.31582 | 6020 ft | 285 kts | 48° |
| 2026-05-05 11:20 | 41.50246 | -88.29386 | 6009 ft | 286 kts | 61° |
| 2026-05-05 11:21 | 41.50904 | -88.26907 | 6020 ft | 290 kts | 73° |
| 2026-05-05 11:21 | 41.51287 | -88.24266 | 6021 ft | 290 kts | 79° |
| 2026-05-05 11:21 | 41.51526 | -88.21592 | 5955 ft | 290 kts | 82° |
| 2026-05-05 11:21 | 41.51722 | -88.18920 | 5833 ft | 287 kts | 82° |
| 2026-05-05 11:22 | 41.51929 | -88.16285 | 5555 ft | 285 kts | 82° |
| 2026-05-05 11:22 | 41.52147 | -88.13656 | 5246 ft | 284 kts | 81° |
| 2026-05-05 11:22 | 41.52367 | -88.11051 | 5071 ft | 282 kts | 81° |
| 2026-05-05 11:22 | 41.52592 | -88.08459 | 5030 ft | 280 kts | 81° |
| 2026-05-05 11:23 | 41.52818 | -88.05886 | 5022 ft | 280 kts | 81° |
| 2026-05-05 11:23 | 41.53043 | -88.03326 | 5019 ft | 282 kts | 81° |
| 2026-05-05 11:23 | 41.53271 | -88.00724 | 5018 ft | 282 kts | 81° |
| 2026-05-05 11:23 | 41.53497 | -87.98160 | 5011 ft | 272 kts | 81° |
| 2026-05-05 11:24 | 41.53712 | -87.95712 | 5002 ft | 259 kts | 81° |
| 2026-05-05 11:24 | 41.53918 | -87.93382 | 4991 ft | 247 kts | 81° |
| 2026-05-05 11:24 | 41.54116 | -87.91133 | 4991 ft | 241 kts | 81° |
| 2026-05-05 11:24 | 41.54311 | -87.88930 | 4994 ft | 238 kts | 81° |
| 2026-05-05 11:25 | 41.54503 | -87.86754 | 5044 ft | 235 kts | 81° |
| 2026-05-05 11:25 | 41.54695 | -87.84580 | 5042 ft | 237 kts | 80° |
| 2026-05-05 11:25 | 41.54889 | -87.82421 | 5032 ft | 239 kts | 81° |
| 2026-05-05 11:25 | 41.55082 | -87.80220 | 5025 ft | 239 kts | 81° |
| 2026-05-05 11:26 | 41.55273 | -87.78023 | 5016 ft | 238 kts | 81° |
| 2026-05-05 11:26 | 41.55464 | -87.75823 | 5011 ft | 239 kts | 81° |
| 2026-05-05 11:26 | 41.55656 | -87.73625 | 5008 ft | 238 kts | 81° |
| 2026-05-05 11:26 | 41.55846 | -87.71421 | 5004 ft | 238 kts | 81° |
| 2026-05-05 11:27 | 41.56006 | -87.69248 | 4998 ft | 231 kts | 83° |
| 2026-05-05 11:27 | 41.56110 | -87.67151 | 5016 ft | 221 kts | 84° |
| 2026-05-05 11:27 | 41.56199 | -87.65151 | 5016 ft | 216 kts | 84° |
| 2026-05-05 11:27 | 41.56289 | -87.63155 | 5009 ft | 215 kts | 84° |
| 2026-05-05 11:28 | 41.56378 | -87.61150 | 5010 ft | 217 kts | 84° |
| 2026-05-05 11:28 | 41.56469 | -87.59128 | 5008 ft | 219 kts | 84° |
| 2026-05-05 11:28 | 41.56560 | -87.57095 | 5013 ft | 220 kts | 84° |
| 2026-05-05 11:28 | 41.56653 | -87.55056 | 5008 ft | 220 kts | 84° |
| 2026-05-05 11:29 | 41.56745 | -87.53024 | 5007 ft | 219 kts | 84° |
| 2026-05-05 11:29 | 41.56838 | -87.50990 | 5007 ft | 219 kts | 84° |
| 2026-05-05 11:29 | 41.56930 | -87.48954 | 5009 ft | 220 kts | 84° |
| 2026-05-05 11:29 | 41.57023 | -87.46948 | 5004 ft | 218 kts | 84° |
| 2026-05-05 11:30 | 41.57321 | -87.44994 | 4966 ft | 213 kts | 59° |
| 2026-05-05 11:30 | 41.58366 | -87.43740 | 4937 ft | 199 kts | 16° |
| 2026-05-05 11:30 | 41.59681 | -87.43812 | 4968 ft | 190 kts | 332° |
| 2026-05-05 11:30 | 41.60613 | -87.44985 | 5029 ft | 185 kts | 303° |
| 2026-05-05 11:31 | 41.61195 | -87.46522 | 5040 ft | 186 kts | 290° |
| 2026-05-05 11:31 | 41.61536 | -87.48182 | 5027 ft | 185 kts | 285° |
| 2026-05-05 11:31 | 41.61852 | -87.49851 | 5017 ft | 186 kts | 285° |
| 2026-05-05 11:31 | 41.62168 | -87.51524 | 5011 ft | 185 kts | 285° |
| 2026-05-05 11:32 | 41.62703 | -87.53046 | 4917 ft | 185 kts | 306° |
| 2026-05-05 11:32 | 41.63557 | -87.54329 | 4660 ft | 185 kts | 313° |
| 2026-05-05 11:32 | 41.64457 | -87.55550 | 4405 ft | 184 kts | 313° |
| 2026-05-05 11:32 | 41.65348 | -87.56772 | 4159 ft | 183 kts | 313° |
| 2026-05-05 11:33 | 41.66227 | -87.57990 | 3916 ft | 181 kts | 314° |
| 2026-05-05 11:33 | 41.67099 | -87.59204 | 3676 ft | 181 kts | 314° |
| 2026-05-05 11:33 | 41.67969 | -87.60417 | 3438 ft | 181 kts | 314° |
| 2026-05-05 11:33 | 41.68839 | -87.61635 | 3194 ft | 180 kts | 315° |
| 2026-05-05 11:34 | 41.69680 | -87.62812 | 2959 ft | 174 kts | 315° |
| 2026-05-05 11:34 | 41.70497 | -87.63957 | 2725 ft | 166 kts | 315° |
| 2026-05-05 11:34 | 41.71275 | -87.65047 | 2521 ft | 157 kts | 315° |
| 2026-05-05 11:34 | 41.72001 | -87.66063 | 2335 ft | 146 kts | 315° |
| 2026-05-05 11:35 | 41.72694 | -87.67036 | 2130 ft | 142 kts | 315° |
| 2026-05-05 11:35 | 41.73376 | -87.67992 | 1928 ft | 142 kts | 315° |
| 2026-05-05 11:35 | 41.74059 | -87.68946 | 1771 ft | 143 kts | 315° |
| 2026-05-05 11:35 | 41.74749 | -87.69916 | 1634 ft | 144 kts | 314° |
| 2026-05-05 11:36 | 41.75442 | -87.70893 | 1448 ft | 145 kts | 314° |
| 2026-05-05 11:36 | 41.76124 | -87.71865 | 1231 ft | 145 kts | 314° |
| 2026-05-05 11:36 | 41.76819 | -87.72831 | 1028 ft | 143 kts | 315° |
| 2026-05-05 11:36 | 41.77508 | -87.73795 | 810 ft | 143 kts | 315° |
| 2026-05-05 11:37 | 41.78193 | -87.74754 | 637 ft | 140 kts | 315° |
| 2026-05-05 11:37 | 41.78729 | -87.75506 | 628 ft | 58 kts | 314° |
| 2026-05-05 11:37 | 41.78887 | -87.75719 | 628 ft | 24 kts | 322° |
| 2026-05-05 11:37 | 41.79010 | -87.75796 | 628 ft | 15 kts | 341° |
| 2026-05-05 11:38 | 41.79090 | -87.75830 | 628 ft | 10 kts | 343° |
| 2026-05-05 11:38 | 41.79125 | -87.75769 | 628 ft | 10 kts | 88° |
| 2026-05-05 11:38 | 41.79112 | -87.75641 | 628 ft | 19 kts | 120° |
| 2026-05-05 11:38 | 41.79015 | -87.75487 | 628 ft | 22 kts | 133° |
| 2026-05-05 11:39 | 41.78913 | -87.75342 | 628 ft | 21 kts | 133° |
| 2026-05-05 11:39 | 41.78816 | -87.75202 | 628 ft | 20 kts | 133° |
| 2026-05-05 11:39 | 41.78721 | -87.75070 | 628 ft | 19 kts | 134° |
| 2026-05-05 11:39 | 41.78630 | -87.74947 | 628 ft | 16 kts | 134° |
| 2026-05-05 11:40 | 41.78606 | -87.74858 | 628 ft | 10 kts | 57° |
| 2026-05-05 11:40 | 41.78608 | -87.74780 | 628 ft | 10 kts | 133° |
| 2026-05-05 11:40 | 41.78564 | -87.74717 | 628 ft | 9 kts | 133° |
| 2026-05-05 11:40 | 41.78520 | -87.74657 | 628 ft | 9 kts | 135° |
| 2026-05-05 11:41 | 41.78477 | -87.74600 | 628 ft | 8 kts | 133° |
| 2026-05-05 11:41 | 41.78491 | -87.74534 | 628 ft | 8 kts | 45° |
| 2026-05-05 11:41 | 41.78530 | -87.74482 | 628 ft | 8 kts | 44° |
| 2026-05-05 11:41 | 41.78568 | -87.74433 | 628 ft | 7 kts | 44° |
| 2026-05-05 11:42 | 41.78596 | -87.74381 | 628 ft | 7 kts | 94° |
| 2026-05-05 11:42 | 41.78573 | -87.74333 | 628 ft | 2 kts | 134° |
| 2026-05-05 11:42 | 41.78572 | -87.74332 | 628 ft | 0 kts | 134° |